sensor_id;sensor_type;location;lat;lon;timestamp;P1;durP1;ratioP1;P2;durP2;ratioP2
846;SDS011;410;48.954;9.474;2023-07-02T00:01:37;4.73;;;3.60;;
846;SDS011;410;48.954;9.474;2023-07-02T00:03:40;4.50;;;3.03;;
846;SDS011;410;48.954;9.474;2023-07-02T00:05:43;3.97;;;3.30;;
846;SDS011;410;48.954;9.474;2023-07-02T00:07:46;5.33;;;3.47;;
846;SDS011;410;48.954;9.474;2023-07-02T00:09:50;4.03;;;3.30;;
846;SDS011;410;48.954;9.474;2023-07-02T00:11:53;5.20;;;3.80;;
846;SDS011;410;48.954;9.474;2023-07-02T00:13:57;4.80;;;3.30;;
846;SDS011;410;48.954;9.474;2023-07-02T00:16:00;4.83;;;3.70;;
846;SDS011;410;48.954;9.474;2023-07-02T00:18:06;3.90;;;3.20;;
846;SDS011;410;48.954;9.474;2023-07-02T00:20:09;5.67;;;3.30;;
846;SDS011;410;48.954;9.474;2023-07-02T00:22:17;4.60;;;3.73;;
846;SDS011;410;48.954;9.474;2023-07-02T00:24:20;4.87;;;3.77;;
846;SDS011;410;48.954;9.474;2023-07-02T00:26:23;3.80;;;3.10;;
846;SDS011;410;48.954;9.474;2023-07-02T00:28:27;4.40;;;3.40;;
846;SDS011;410;48.954;9.474;2023-07-02T00:30:30;4.60;;;3.60;;
846;SDS011;410;48.954;9.474;2023-07-02T00:32:34;6.50;;;3.60;;
846;SDS011;410;48.954;9.474;2023-07-02T00:34:38;5.70;;;4.00;;
846;SDS011;410;48.954;9.474;2023-07-02T00:36:41;5.50;;;3.40;;
846;SDS011;410;48.954;9.474;2023-07-02T00:38:45;4.10;;;3.60;;
846;SDS011;410;48.954;9.474;2023-07-02T00:40:49;5.13;;;3.17;;
846;SDS011;410;48.954;9.474;2023-07-02T00:42:52;3.67;;;2.97;;
846;SDS011;410;48.954;9.474;2023-07-02T00:44:55;5.60;;;3.90;;
846;SDS011;410;48.954;9.474;2023-07-02T00:46:58;4.27;;;3.30;;
846;SDS011;410;48.954;9.474;2023-07-02T00:49:01;4.37;;;3.73;;
846;SDS011;410;48.954;9.474;2023-07-02T00:51:08;4.60;;;3.50;;
846;SDS011;410;48.954;9.474;2023-07-02T00:53:12;6.40;;;4.80;;
846;SDS011;410;48.954;9.474;2023-07-02T00:55:15;4.27;;;3.30;;
846;SDS011;410;48.954;9.474;2023-07-02T00:57:18;4.43;;;3.10;;
846;SDS011;410;48.954;9.474;2023-07-02T00:59:22;6.77;;;3.33;;
846;SDS011;410;48.954;9.474;2023-07-02T01:01:26;4.60;;;3.53;;
846;SDS011;410;48.954;9.474;2023-07-02T01:03:31;4.97;;;3.47;;
846;SDS011;410;48.954;9.474;2023-07-02T01:05:39;4.77;;;3.50;;
846;SDS011;410;48.954;9.474;2023-07-02T01:07:45;4.87;;;3.80;;
846;SDS011;410;48.954;9.474;2023-07-02T01:09:48;5.13;;;3.43;;
846;SDS011;410;48.954;9.474;2023-07-02T01:11:53;4.57;;;3.40;;
846;SDS011;410;48.954;9.474;2023-07-02T01:13:59;4.90;;;3.77;;
846;SDS011;410;48.954;9.474;2023-07-02T01:16:05;4.60;;;3.70;;
846;SDS011;410;48.954;9.474;2023-07-02T01:18:09;4.40;;;3.40;;
846;SDS011;410;48.954;9.474;2023-07-02T01:20:15;4.50;;;3.60;;
846;SDS011;410;48.954;9.474;2023-07-02T01:22:19;4.57;;;3.57;;
846;SDS011;410;48.954;9.474;2023-07-02T01:24:23;4.03;;;3.30;;
846;SDS011;410;48.954;9.474;2023-07-02T01:26:27;4.70;;;3.70;;
846;SDS011;410;48.954;9.474;2023-07-02T01:28:34;4.80;;;3.60;;
846;SDS011;410;48.954;9.474;2023-07-02T01:30:38;4.17;;;3.60;;
846;SDS011;410;48.954;9.474;2023-07-02T01:32:42;4.90;;;3.77;;
846;SDS011;410;48.954;9.474;2023-07-02T01:34:46;4.30;;;3.63;;
846;SDS011;410;48.954;9.474;2023-07-02T01:36:52;4.50;;;3.80;;
846;SDS011;410;48.954;9.474;2023-07-02T01:38:56;5.43;;;3.80;;
846;SDS011;410;48.954;9.474;2023-07-02T01:41:00;5.03;;;3.40;;
846;SDS011;410;48.954;9.474;2023-07-02T01:43:03;4.23;;;3.30;;
846;SDS011;410;48.954;9.474;2023-07-02T01:45:07;3.90;;;3.40;;
846;SDS011;410;48.954;9.474;2023-07-02T01:47:12;5.80;;;4.23;;
846;SDS011;410;48.954;9.474;2023-07-02T01:49:16;5.43;;;3.80;;
846;SDS011;410;48.954;9.474;2023-07-02T01:51:20;6.60;;;3.67;;
846;SDS011;410;48.954;9.474;2023-07-02T01:53:25;7.43;;;4.17;;
846;SDS011;410;48.954;9.474;2023-07-02T01:55:28;4.60;;;3.57;;
846;SDS011;410;48.954;9.474;2023-07-02T01:57:32;4.07;;;3.47;;
846;SDS011;410;48.954;9.474;2023-07-02T01:59:35;4.40;;;3.40;;
846;SDS011;410;48.954;9.474;2023-07-02T02:01:39;5.00;;;4.23;;
846;SDS011;410;48.954;9.474;2023-07-02T02:03:43;4.50;;;3.70;;
846;SDS011;410;48.954;9.474;2023-07-02T02:05:46;5.47;;;3.80;;
846;SDS011;410;48.954;9.474;2023-07-02T02:07:50;4.77;;;3.83;;
846;SDS011;410;48.954;9.474;2023-07-02T02:09:55;6.63;;;4.13;;
846;SDS011;410;48.954;9.474;2023-07-02T02:11:58;4.80;;;3.70;;
846;SDS011;410;48.954;9.474;2023-07-02T02:14:02;4.30;;;3.67;;
846;SDS011;410;48.954;9.474;2023-07-02T02:16:05;4.20;;;3.07;;
846;SDS011;410;48.954;9.474;2023-07-02T02:18:09;6.30;;;3.70;;
846;SDS011;410;48.954;9.474;2023-07-02T02:20:12;6.53;;;3.93;;
846;SDS011;410;48.954;9.474;2023-07-02T02:22:16;5.67;;;4.20;;
846;SDS011;410;48.954;9.474;2023-07-02T02:24:20;4.70;;;3.73;;
846;SDS011;410;48.954;9.474;2023-07-02T02:26:25;4.67;;;3.87;;
846;SDS011;410;48.954;9.474;2023-07-02T02:28:28;4.90;;;3.70;;
846;SDS011;410;48.954;9.474;2023-07-02T02:30:32;4.40;;;3.30;;
846;SDS011;410;48.954;9.474;2023-07-02T02:32:36;4.90;;;3.63;;
846;SDS011;410;48.954;9.474;2023-07-02T02:34:42;6.27;;;3.73;;
846;SDS011;410;48.954;9.474;2023-07-02T02:36:47;5.43;;;4.03;;
846;SDS011;410;48.954;9.474;2023-07-02T02:38:51;5.00;;;4.07;;
846;SDS011;410;48.954;9.474;2023-07-02T02:40:55;4.67;;;3.50;;
846;SDS011;410;48.954;9.474;2023-07-02T02:43:00;4.53;;;3.60;;
846;SDS011;410;48.954;9.474;2023-07-02T02:45:04;6.47;;;4.07;;
846;SDS011;410;48.954;9.474;2023-07-02T02:47:10;6.03;;;4.37;;
846;SDS011;410;48.954;9.474;2023-07-02T02:49:14;5.07;;;4.27;;
846;SDS011;410;48.954;9.474;2023-07-02T02:51:17;5.60;;;3.90;;
846;SDS011;410;48.954;9.474;2023-07-02T02:53:21;4.90;;;4.00;;
846;SDS011;410;48.954;9.474;2023-07-02T02:55:24;7.63;;;4.27;;
846;SDS011;410;48.954;9.474;2023-07-02T02:57:28;4.47;;;3.60;;
846;SDS011;410;48.954;9.474;2023-07-02T02:59:33;4.70;;;3.93;;
846;SDS011;410;48.954;9.474;2023-07-02T03:01:37;6.30;;;4.13;;
846;SDS011;410;48.954;9.474;2023-07-02T03:03:41;4.87;;;3.97;;
846;SDS011;410;48.954;9.474;2023-07-02T03:05:47;6.17;;;4.27;;
846;SDS011;410;48.954;9.474;2023-07-02T03:07:51;5.03;;;3.87;;
846;SDS011;410;48.954;9.474;2023-07-02T03:09:54;4.80;;;3.80;;
846;SDS011;410;48.954;9.474;2023-07-02T03:11:58;5.20;;;4.30;;
846;SDS011;410;48.954;9.474;2023-07-02T03:14:02;5.60;;;4.07;;
846;SDS011;410;48.954;9.474;2023-07-02T03:16:07;4.50;;;3.60;;
846;SDS011;410;48.954;9.474;2023-07-02T03:18:11;4.23;;;3.80;;
846;SDS011;410;48.954;9.474;2023-07-02T03:20:14;5.70;;;4.50;;
846;SDS011;410;48.954;9.474;2023-07-02T03:22:21;5.50;;;4.17;;
846;SDS011;410;48.954;9.474;2023-07-02T03:24:25;5.10;;;3.77;;
846;SDS011;410;48.954;9.474;2023-07-02T03:26:28;5.93;;;4.13;;
846;SDS011;410;48.954;9.474;2023-07-02T03:28:32;5.10;;;3.57;;
846;SDS011;410;48.954;9.474;2023-07-02T03:30:36;5.30;;;3.87;;
846;SDS011;410;48.954;9.474;2023-07-02T03:32:41;7.07;;;4.03;;
846;SDS011;410;48.954;9.474;2023-07-02T03:34:44;6.53;;;3.80;;
846;SDS011;410;48.954;9.474;2023-07-02T03:36:47;4.17;;;3.50;;
846;SDS011;410;48.954;9.474;2023-07-02T03:38:50;6.00;;;3.60;;
846;SDS011;410;48.954;9.474;2023-07-02T03:40:54;7.20;;;3.63;;
846;SDS011;410;48.954;9.474;2023-07-02T03:42:57;4.87;;;3.67;;
846;SDS011;410;48.954;9.474;2023-07-02T03:45:00;6.03;;;3.70;;
846;SDS011;410;48.954;9.474;2023-07-02T03:47:05;5.40;;;3.87;;
846;SDS011;410;48.954;9.474;2023-07-02T03:49:11;6.43;;;3.80;;
846;SDS011;410;48.954;9.474;2023-07-02T03:51:14;4.43;;;3.70;;
846;SDS011;410;48.954;9.474;2023-07-02T03:53:18;8.80;;;4.67;;
846;SDS011;410;48.954;9.474;2023-07-02T03:55:21;6.13;;;4.43;;
846;SDS011;410;48.954;9.474;2023-07-02T03:57:25;5.43;;;3.87;;
846;SDS011;410;48.954;9.474;2023-07-02T03:59:28;8.43;;;4.57;;
846;SDS011;410;48.954;9.474;2023-07-02T04:01:31;8.83;;;5.10;;
846;SDS011;410;48.954;9.474;2023-07-02T04:03:34;6.20;;;4.10;;
846;SDS011;410;48.954;9.474;2023-07-02T04:05:39;6.47;;;4.07;;
846;SDS011;410;48.954;9.474;2023-07-02T04:07:42;7.77;;;5.20;;
846;SDS011;410;48.954;9.474;2023-07-02T04:09:46;6.83;;;4.43;;
846;SDS011;410;48.954;9.474;2023-07-02T04:11:49;6.73;;;5.03;;
846;SDS011;410;48.954;9.474;2023-07-02T04:13:52;7.33;;;5.03;;
846;SDS011;410;48.954;9.474;2023-07-02T04:15:55;9.20;;;5.27;;
846;SDS011;410;48.954;9.474;2023-07-02T04:17:59;7.80;;;4.53;;
846;SDS011;410;48.954;9.474;2023-07-02T04:20:02;7.00;;;4.13;;
846;SDS011;410;48.954;9.474;2023-07-02T04:22:07;6.50;;;4.23;;
846;SDS011;410;48.954;9.474;2023-07-02T04:24:10;5.80;;;4.53;;
846;SDS011;410;48.954;9.474;2023-07-02T04:26:14;5.30;;;4.10;;
846;SDS011;410;48.954;9.474;2023-07-02T04:28:37;7.03;;;4.87;;
846;SDS011;410;48.954;9.474;2023-07-02T04:30:40;7.13;;;4.60;;
846;SDS011;410;48.954;9.474;2023-07-02T04:32:44;8.80;;;5.10;;
846;SDS011;410;48.954;9.474;2023-07-02T04:34:48;8.20;;;5.43;;
846;SDS011;410;48.954;9.474;2023-07-02T04:36:52;9.60;;;6.20;;
846;SDS011;410;48.954;9.474;2023-07-02T04:38:57;10.00;;;5.40;;
846;SDS011;410;48.954;9.474;2023-07-02T04:41:00;6.90;;;4.67;;
846;SDS011;410;48.954;9.474;2023-07-02T04:43:07;7.80;;;5.23;;
846;SDS011;410;48.954;9.474;2023-07-02T04:45:11;8.47;;;5.43;;
846;SDS011;410;48.954;9.474;2023-07-02T04:47:18;7.97;;;5.47;;
846;SDS011;410;48.954;9.474;2023-07-02T04:49:21;10.20;;;5.37;;
846;SDS011;410;48.954;9.474;2023-07-02T04:51:24;7.00;;;4.77;;
846;SDS011;410;48.954;9.474;2023-07-02T04:53:27;7.70;;;5.50;;
846;SDS011;410;48.954;9.474;2023-07-02T04:55:32;6.50;;;4.80;;
846;SDS011;410;48.954;9.474;2023-07-02T04:57:35;6.27;;;4.60;;
846;SDS011;410;48.954;9.474;2023-07-02T04:59:38;7.17;;;5.10;;
846;SDS011;410;48.954;9.474;2023-07-02T05:01:42;8.27;;;5.20;;
846;SDS011;410;48.954;9.474;2023-07-02T05:03:46;11.20;;;5.97;;
846;SDS011;410;48.954;9.474;2023-07-02T05:05:49;7.90;;;5.43;;
846;SDS011;410;48.954;9.474;2023-07-02T05:07:53;7.70;;;5.07;;
846;SDS011;410;48.954;9.474;2023-07-02T05:09:57;6.97;;;5.30;;
846;SDS011;410;48.954;9.474;2023-07-02T05:12:01;5.90;;;4.60;;
846;SDS011;410;48.954;9.474;2023-07-02T05:14:05;9.97;;;5.37;;
846;SDS011;410;48.954;9.474;2023-07-02T05:16:08;9.13;;;5.07;;
846;SDS011;410;48.954;9.474;2023-07-02T05:18:12;6.93;;;4.83;;
846;SDS011;410;48.954;9.474;2023-07-02T05:20:15;8.00;;;6.00;;
846;SDS011;410;48.954;9.474;2023-07-02T05:22:19;8.03;;;4.83;;
846;SDS011;410;48.954;9.474;2023-07-02T05:24:22;6.40;;;4.90;;
846;SDS011;410;48.954;9.474;2023-07-02T05:26:25;8.60;;;4.90;;
846;SDS011;410;48.954;9.474;2023-07-02T05:28:30;7.97;;;4.90;;
846;SDS011;410;48.954;9.474;2023-07-02T05:30:33;7.93;;;4.80;;
846;SDS011;410;48.954;9.474;2023-07-02T05:32:36;7.83;;;5.27;;
846;SDS011;410;48.954;9.474;2023-07-02T05:34:41;9.70;;;4.90;;
846;SDS011;410;48.954;9.474;2023-07-02T05:36:44;10.93;;;4.80;;
846;SDS011;410;48.954;9.474;2023-07-02T05:38:48;8.73;;;4.40;;
846;SDS011;410;48.954;9.474;2023-07-02T05:40:52;7.33;;;4.80;;
846;SDS011;410;48.954;9.474;2023-07-02T05:42:55;7.60;;;4.30;;
846;SDS011;410;48.954;9.474;2023-07-02T05:45:00;7.90;;;4.90;;
846;SDS011;410;48.954;9.474;2023-07-02T05:47:03;10.13;;;4.90;;
846;SDS011;410;48.954;9.474;2023-07-02T05:49:06;5.83;;;4.10;;
846;SDS011;410;48.954;9.474;2023-07-02T05:51:09;7.43;;;4.20;;
846;SDS011;410;48.954;9.474;2023-07-02T05:53:13;5.57;;;4.10;;
846;SDS011;410;48.954;9.474;2023-07-02T05:55:16;6.33;;;4.33;;
846;SDS011;410;48.954;9.474;2023-07-02T05:57:20;8.07;;;4.50;;
846;SDS011;410;48.954;9.474;2023-07-02T05:59:23;6.43;;;4.13;;
846;SDS011;410;48.954;9.474;2023-07-02T06:01:27;3.87;;;3.37;;
846;SDS011;410;48.954;9.474;2023-07-02T06:03:31;7.73;;;3.80;;
846;SDS011;410;48.954;9.474;2023-07-02T06:05:34;9.87;;;4.23;;
846;SDS011;410;48.954;9.474;2023-07-02T06:07:37;7.67;;;4.17;;
846;SDS011;410;48.954;9.474;2023-07-02T06:09:40;6.03;;;4.47;;
846;SDS011;410;48.954;9.474;2023-07-02T06:11:44;6.23;;;3.60;;
846;SDS011;410;48.954;9.474;2023-07-02T06:13:47;5.07;;;3.40;;
846;SDS011;410;48.954;9.474;2023-07-02T06:15:50;9.27;;;4.33;;
846;SDS011;410;48.954;9.474;2023-07-02T06:17:55;6.17;;;4.37;;
846;SDS011;410;48.954;9.474;2023-07-02T06:19:58;8.50;;;4.40;;
846;SDS011;410;48.954;9.474;2023-07-02T06:22:02;5.40;;;3.70;;
846;SDS011;410;48.954;9.474;2023-07-02T06:24:05;6.70;;;4.70;;
846;SDS011;410;48.954;9.474;2023-07-02T06:26:09;7.00;;;4.60;;
846;SDS011;410;48.954;9.474;2023-07-02T06:28:12;6.97;;;4.23;;
846;SDS011;410;48.954;9.474;2023-07-02T06:30:15;8.23;;;5.30;;
846;SDS011;410;48.954;9.474;2023-07-02T06:32:19;7.10;;;4.80;;
846;SDS011;410;48.954;9.474;2023-07-02T06:34:23;8.20;;;5.53;;
846;SDS011;410;48.954;9.474;2023-07-02T06:36:27;9.57;;;4.83;;
846;SDS011;410;48.954;9.474;2023-07-02T06:38:30;8.20;;;4.60;;
846;SDS011;410;48.954;9.474;2023-07-02T06:40:33;8.17;;;5.00;;
846;SDS011;410;48.954;9.474;2023-07-02T06:42:37;10.50;;;6.50;;
846;SDS011;410;48.954;9.474;2023-07-02T06:44:40;11.03;;;5.60;;
846;SDS011;410;48.954;9.474;2023-07-02T06:46:45;11.90;;;6.50;;
846;SDS011;410;48.954;9.474;2023-07-02T06:48:48;9.80;;;6.13;;
846;SDS011;410;48.954;9.474;2023-07-02T06:50:55;8.00;;;5.00;;
846;SDS011;410;48.954;9.474;2023-07-02T06:52:59;8.50;;;5.33;;
846;SDS011;410;48.954;9.474;2023-07-02T06:55:02;9.40;;;5.77;;
846;SDS011;410;48.954;9.474;2023-07-02T06:57:06;9.27;;;5.90;;
846;SDS011;410;48.954;9.474;2023-07-02T06:59:10;10.53;;;5.40;;
846;SDS011;410;48.954;9.474;2023-07-02T07:01:13;9.33;;;5.87;;
846;SDS011;410;48.954;9.474;2023-07-02T07:03:16;10.17;;;5.60;;
846;SDS011;410;48.954;9.474;2023-07-02T07:05:20;12.37;;;6.70;;
846;SDS011;410;48.954;9.474;2023-07-02T07:07:24;11.27;;;6.60;;
846;SDS011;410;48.954;9.474;2023-07-02T07:09:27;9.90;;;6.00;;
846;SDS011;410;48.954;9.474;2023-07-02T07:11:31;10.07;;;6.43;;
846;SDS011;410;48.954;9.474;2023-07-02T07:13:34;9.33;;;5.27;;
846;SDS011;410;48.954;9.474;2023-07-02T07:15:37;10.33;;;4.90;;
846;SDS011;410;48.954;9.474;2023-07-02T07:17:41;9.07;;;5.60;;
846;SDS011;410;48.954;9.474;2023-07-02T07:19:44;9.57;;;5.73;;
846;SDS011;410;48.954;9.474;2023-07-02T07:21:47;13.50;;;6.07;;
846;SDS011;410;48.954;9.474;2023-07-02T07:23:52;9.67;;;5.67;;
846;SDS011;410;48.954;9.474;2023-07-02T07:25:55;9.33;;;6.30;;
846;SDS011;410;48.954;9.474;2023-07-02T07:27:59;8.83;;;5.80;;
846;SDS011;410;48.954;9.474;2023-07-02T07:30:02;8.93;;;5.50;;
846;SDS011;410;48.954;9.474;2023-07-02T07:32:06;11.10;;;5.77;;
846;SDS011;410;48.954;9.474;2023-07-02T07:34:10;9.53;;;5.33;;
846;SDS011;410;48.954;9.474;2023-07-02T07:36:13;9.00;;;5.50;;
846;SDS011;410;48.954;9.474;2023-07-02T07:38:16;8.50;;;5.70;;
846;SDS011;410;48.954;9.474;2023-07-02T07:40:21;10.63;;;5.90;;
846;SDS011;410;48.954;9.474;2023-07-02T07:42:24;12.93;;;5.50;;
846;SDS011;410;48.954;9.474;2023-07-02T07:44:27;8.90;;;6.20;;
846;SDS011;410;48.954;9.474;2023-07-02T07:46:31;9.97;;;5.63;;
846;SDS011;410;48.954;9.474;2023-07-02T07:48:34;8.80;;;6.03;;
846;SDS011;410;48.954;9.474;2023-07-02T07:50:37;9.97;;;6.27;;
846;SDS011;410;48.954;9.474;2023-07-02T07:52:41;11.37;;;6.70;;
846;SDS011;410;48.954;9.474;2023-07-02T07:54:45;9.83;;;6.10;;
846;SDS011;410;48.954;9.474;2023-07-02T07:56:49;9.53;;;6.00;;
846;SDS011;410;48.954;9.474;2023-07-02T07:58:53;8.90;;;6.33;;
846;SDS011;410;48.954;9.474;2023-07-02T08:00:56;10.90;;;6.23;;
846;SDS011;410;48.954;9.474;2023-07-02T08:02:59;10.00;;;6.40;;
846;SDS011;410;48.954;9.474;2023-07-02T08:05:04;10.50;;;6.10;;
846;SDS011;410;48.954;9.474;2023-07-02T08:07:08;9.83;;;6.30;;
846;SDS011;410;48.954;9.474;2023-07-02T08:09:11;10.10;;;6.50;;
846;SDS011;410;48.954;9.474;2023-07-02T08:11:14;14.70;;;8.07;;
846;SDS011;410;48.954;9.474;2023-07-02T08:13:19;9.57;;;6.50;;
846;SDS011;410;48.954;9.474;2023-07-02T08:15:22;9.30;;;6.30;;
846;SDS011;410;48.954;9.474;2023-07-02T08:17:25;11.63;;;7.43;;
846;SDS011;410;48.954;9.474;2023-07-02T08:19:28;12.90;;;7.33;;
846;SDS011;410;48.954;9.474;2023-07-02T08:21:32;9.87;;;7.30;;
846;SDS011;410;48.954;9.474;2023-07-02T08:23:35;10.20;;;6.97;;
846;SDS011;410;48.954;9.474;2023-07-02T08:25:38;9.10;;;6.47;;
846;SDS011;410;48.954;9.474;2023-07-02T08:27:42;8.97;;;7.00;;
846;SDS011;410;48.954;9.474;2023-07-02T08:29:46;12.03;;;8.37;;
846;SDS011;410;48.954;9.474;2023-07-02T08:31:50;15.43;;;8.37;;
846;SDS011;410;48.954;9.474;2023-07-02T08:33:53;11.03;;;7.87;;
846;SDS011;410;48.954;9.474;2023-07-02T08:35:57;11.47;;;8.07;;
846;SDS011;410;48.954;9.474;2023-07-02T08:38:02;12.13;;;7.40;;
846;SDS011;410;48.954;9.474;2023-07-02T08:40:15;12.27;;;7.43;;
846;SDS011;410;48.954;9.474;2023-07-02T08:42:19;14.17;;;8.50;;
846;SDS011;410;48.954;9.474;2023-07-02T08:44:22;12.40;;;8.33;;
846;SDS011;410;48.954;9.474;2023-07-02T08:46:26;11.75;;;7.25;;
846;SDS011;410;48.954;9.474;2023-07-02T08:48:30;11.43;;;7.33;;
846;SDS011;410;48.954;9.474;2023-07-02T08:50:33;11.30;;;7.37;;
846;SDS011;410;48.954;9.474;2023-07-02T08:52:36;13.23;;;7.87;;
846;SDS011;410;48.954;9.474;2023-07-02T08:54:40;14.23;;;7.73;;
846;SDS011;410;48.954;9.474;2023-07-02T08:56:43;12.50;;;7.43;;
846;SDS011;410;48.954;9.474;2023-07-02T08:58:47;12.43;;;8.37;;
846;SDS011;410;48.954;9.474;2023-07-02T09:03:14;12.53;;;8.33;;
846;SDS011;410;48.954;9.474;2023-07-02T09:05:18;15.10;;;8.83;;
846;SDS011;410;48.954;9.474;2023-07-02T09:07:22;14.63;;;8.63;;
846;SDS011;410;48.954;9.474;2023-07-02T09:09:25;15.20;;;8.27;;
846;SDS011;410;48.954;9.474;2023-07-02T09:11:29;13.83;;;9.60;;
846;SDS011;410;48.954;9.474;2023-07-02T09:13:41;16.93;;;9.10;;
846;SDS011;410;48.954;9.474;2023-07-02T09:15:45;14.97;;;9.80;;
846;SDS011;410;48.954;9.474;2023-07-02T09:17:49;15.17;;;9.53;;
846;SDS011;410;48.954;9.474;2023-07-02T09:19:54;16.30;;;10.03;;
846;SDS011;410;48.954;9.474;2023-07-02T09:21:57;14.57;;;8.93;;
846;SDS011;410;48.954;9.474;2023-07-02T09:24:11;15.40;;;8.63;;
846;SDS011;410;48.954;9.474;2023-07-02T09:26:19;13.87;;;9.17;;
846;SDS011;410;48.954;9.474;2023-07-02T09:28:22;14.90;;;10.07;;
846;SDS011;410;48.954;9.474;2023-07-02T09:30:26;14.43;;;8.57;;
846;SDS011;410;48.954;9.474;2023-07-02T09:32:30;17.13;;;9.90;;
846;SDS011;410;48.954;9.474;2023-07-02T09:34:35;14.07;;;9.63;;
846;SDS011;410;48.954;9.474;2023-07-02T09:36:40;12.27;;;7.93;;
846;SDS011;410;48.954;9.474;2023-07-02T09:38:43;16.20;;;10.00;;
846;SDS011;410;48.954;9.474;2023-07-02T09:40:50;15.10;;;8.80;;
846;SDS011;410;48.954;9.474;2023-07-02T09:42:54;14.17;;;9.27;;
846;SDS011;410;48.954;9.474;2023-07-02T09:44:58;13.97;;;9.27;;
846;SDS011;410;48.954;9.474;2023-07-02T09:47:02;15.10;;;9.67;;
846;SDS011;410;48.954;9.474;2023-07-02T09:49:06;14.23;;;9.90;;
846;SDS011;410;48.954;9.474;2023-07-02T09:51:09;14.50;;;10.20;;
846;SDS011;410;48.954;9.474;2023-07-02T09:53:14;16.40;;;10.00;;
846;SDS011;410;48.954;9.474;2023-07-02T09:55:17;15.07;;;9.80;;
846;SDS011;410;48.954;9.474;2023-07-02T09:57:21;15.10;;;10.07;;
846;SDS011;410;48.954;9.474;2023-07-02T09:59:24;14.63;;;9.50;;
846;SDS011;410;48.954;9.474;2023-07-02T10:01:27;13.10;;;8.90;;
846;SDS011;410;48.954;9.474;2023-07-02T10:03:31;20.10;;;10.60;;
846;SDS011;410;48.954;9.474;2023-07-02T10:05:34;16.80;;;10.30;;
846;SDS011;410;48.954;9.474;2023-07-02T10:07:38;17.50;;;10.17;;
846;SDS011;410;48.954;9.474;2023-07-02T10:09:43;16.30;;;10.70;;
846;SDS011;410;48.954;9.474;2023-07-02T10:11:47;16.87;;;9.63;;
846;SDS011;410;48.954;9.474;2023-07-02T10:13:57;16.30;;;10.53;;
846;SDS011;410;48.954;9.474;2023-07-02T10:16:01;14.60;;;9.50;;
846;SDS011;410;48.954;9.474;2023-07-02T10:18:05;16.17;;;9.83;;
846;SDS011;410;48.954;9.474;2023-07-02T10:20:08;15.20;;;9.87;;
846;SDS011;410;48.954;9.474;2023-07-02T10:22:13;16.17;;;10.20;;
846;SDS011;410;48.954;9.474;2023-07-02T10:24:17;15.67;;;9.90;;
846;SDS011;410;48.954;9.474;2023-07-02T10:26:22;16.63;;;9.83;;
846;SDS011;410;48.954;9.474;2023-07-02T10:28:28;15.83;;;9.33;;
846;SDS011;410;48.954;9.474;2023-07-02T10:30:33;13.97;;;9.10;;
846;SDS011;410;48.954;9.474;2023-07-02T10:32:38;15.40;;;10.00;;
846;SDS011;410;48.954;9.474;2023-07-02T10:34:41;17.90;;;10.57;;
846;SDS011;410;48.954;9.474;2023-07-02T10:36:44;20.23;;;10.87;;
846;SDS011;410;48.954;9.474;2023-07-02T10:38:49;16.13;;;10.60;;
846;SDS011;410;48.954;9.474;2023-07-02T10:40:56;16.73;;;9.60;;
846;SDS011;410;48.954;9.474;2023-07-02T10:43:02;17.20;;;10.80;;
846;SDS011;410;48.954;9.474;2023-07-02T10:45:06;15.30;;;10.20;;
846;SDS011;410;48.954;9.474;2023-07-02T10:47:10;17.63;;;10.53;;
846;SDS011;410;48.954;9.474;2023-07-02T10:49:13;13.60;;;8.80;;
846;SDS011;410;48.954;9.474;2023-07-02T10:51:16;17.50;;;11.40;;
846;SDS011;410;48.954;9.474;2023-07-02T10:53:20;16.20;;;9.30;;
846;SDS011;410;48.954;9.474;2023-07-02T10:55:24;15.23;;;10.83;;
846;SDS011;410;48.954;9.474;2023-07-02T10:57:28;13.97;;;10.03;;
846;SDS011;410;48.954;9.474;2023-07-02T10:59:33;15.00;;;9.63;;
846;SDS011;410;48.954;9.474;2023-07-02T11:01:37;14.63;;;9.73;;
846;SDS011;410;48.954;9.474;2023-07-02T11:03:40;13.03;;;8.73;;
846;SDS011;410;48.954;9.474;2023-07-02T11:05:43;14.37;;;9.93;;
846;SDS011;410;48.954;9.474;2023-07-02T11:07:48;14.67;;;9.10;;
846;SDS011;410;48.954;9.474;2023-07-02T11:09:58;18.60;;;11.70;;
846;SDS011;410;48.954;9.474;2023-07-02T11:12:01;13.67;;;9.00;;
846;SDS011;410;48.954;9.474;2023-07-02T11:14:04;15.83;;;10.50;;
846;SDS011;410;48.954;9.474;2023-07-02T11:16:17;17.70;;;9.60;;
846;SDS011;410;48.954;9.474;2023-07-02T11:18:30;18.17;;;11.30;;
846;SDS011;410;48.954;9.474;2023-07-02T11:20:34;13.67;;;9.43;;
846;SDS011;410;48.954;9.474;2023-07-02T11:22:37;16.70;;;9.63;;
846;SDS011;410;48.954;9.474;2023-07-02T11:24:41;14.67;;;9.03;;
846;SDS011;410;48.954;9.474;2023-07-02T11:26:44;16.23;;;9.30;;
846;SDS011;410;48.954;9.474;2023-07-02T11:28:48;15.10;;;9.70;;
846;SDS011;410;48.954;9.474;2023-07-02T11:30:53;14.50;;;9.57;;
846;SDS011;410;48.954;9.474;2023-07-02T11:32:57;15.60;;;10.10;;
846;SDS011;410;48.954;9.474;2023-07-02T11:35:01;14.10;;;9.30;;
846;SDS011;410;48.954;9.474;2023-07-02T11:37:04;15.40;;;9.57;;
846;SDS011;410;48.954;9.474;2023-07-02T11:39:08;14.30;;;9.10;;
846;SDS011;410;48.954;9.474;2023-07-02T11:41:11;13.17;;;8.20;;
846;SDS011;410;48.954;9.474;2023-07-02T11:43:15;15.87;;;10.00;;
846;SDS011;410;48.954;9.474;2023-07-02T11:45:18;15.00;;;9.77;;
846;SDS011;410;48.954;9.474;2023-07-02T11:47:22;12.63;;;9.27;;
846;SDS011;410;48.954;9.474;2023-07-02T11:49:28;15.40;;;9.40;;
846;SDS011;410;48.954;9.474;2023-07-02T11:51:31;17.03;;;11.00;;
846;SDS011;410;48.954;9.474;2023-07-02T11:53:34;10.43;;;8.17;;
846;SDS011;410;48.954;9.474;2023-07-02T11:55:38;15.30;;;10.10;;
846;SDS011;410;48.954;9.474;2023-07-02T11:57:41;16.60;;;9.93;;
846;SDS011;410;48.954;9.474;2023-07-02T11:59:45;15.37;;;9.30;;
846;SDS011;410;48.954;9.474;2023-07-02T12:01:48;15.13;;;9.97;;
846;SDS011;410;48.954;9.474;2023-07-02T12:03:51;15.07;;;9.87;;
846;SDS011;410;48.954;9.474;2023-07-02T12:05:56;14.67;;;8.70;;
846;SDS011;410;48.954;9.474;2023-07-02T12:08:01;16.10;;;10.30;;
846;SDS011;410;48.954;9.474;2023-07-02T12:10:05;13.97;;;8.93;;
846;SDS011;410;48.954;9.474;2023-07-02T12:12:10;12.40;;;8.67;;
846;SDS011;410;48.954;9.474;2023-07-02T12:14:13;12.37;;;8.50;;
846;SDS011;410;48.954;9.474;2023-07-02T12:16:17;14.50;;;8.87;;
846;SDS011;410;48.954;9.474;2023-07-02T12:18:21;16.30;;;9.63;;
846;SDS011;410;48.954;9.474;2023-07-02T12:20:24;14.23;;;9.27;;
846;SDS011;410;48.954;9.474;2023-07-02T12:22:28;14.07;;;9.60;;
846;SDS011;410;48.954;9.474;2023-07-02T12:24:31;15.17;;;9.70;;
846;SDS011;410;48.954;9.474;2023-07-02T12:26:35;17.93;;;9.13;;
846;SDS011;410;48.954;9.474;2023-07-02T12:28:38;19.23;;;11.33;;
846;SDS011;410;48.954;9.474;2023-07-02T12:30:41;14.00;;;9.30;;
846;SDS011;410;48.954;9.474;2023-07-02T12:32:44;14.17;;;9.63;;
846;SDS011;410;48.954;9.474;2023-07-02T12:34:48;12.67;;;8.90;;
846;SDS011;410;48.954;9.474;2023-07-02T12:36:51;14.60;;;10.17;;
846;SDS011;410;48.954;9.474;2023-07-02T12:38:55;14.37;;;9.90;;
846;SDS011;410;48.954;9.474;2023-07-02T12:40:58;17.60;;;9.80;;
846;SDS011;410;48.954;9.474;2023-07-02T12:43:02;13.23;;;9.87;;
846;SDS011;410;48.954;9.474;2023-07-02T12:45:05;15.13;;;10.13;;
846;SDS011;410;48.954;9.474;2023-07-02T12:47:09;16.50;;;10.57;;
846;SDS011;410;48.954;9.474;2023-07-02T12:49:13;17.00;;;9.73;;
846;SDS011;410;48.954;9.474;2023-07-02T12:51:16;14.00;;;9.63;;
846;SDS011;410;48.954;9.474;2023-07-02T12:53:20;16.47;;;10.53;;
846;SDS011;410;48.954;9.474;2023-07-02T12:55:25;15.03;;;9.87;;
846;SDS011;410;48.954;9.474;2023-07-02T12:57:28;13.20;;;9.90;;
846;SDS011;410;48.954;9.474;2023-07-02T12:59:31;14.80;;;9.33;;
846;SDS011;410;48.954;9.474;2023-07-02T13:01:34;16.17;;;10.73;;
846;SDS011;410;48.954;9.474;2023-07-02T13:03:38;17.63;;;10.90;;
846;SDS011;410;48.954;9.474;2023-07-02T13:05:41;16.30;;;10.50;;
846;SDS011;410;48.954;9.474;2023-07-02T13:07:44;14.53;;;9.90;;
846;SDS011;410;48.954;9.474;2023-07-02T13:09:47;15.20;;;9.90;;
846;SDS011;410;48.954;9.474;2023-07-02T13:11:52;14.00;;;9.47;;